createdAt,value
2023-01-08T00:03:44.262Z,-21.58
2023-01-08T00:08:47.301Z,-21.75
2023-01-08T00:13:49.860Z,-21.61
2023-01-08T00:18:52.409Z,-21.61
2023-01-08T00:23:55.116Z,-21.60
2023-01-08T00:28:57.727Z,-21.60
2023-01-08T00:34:00.340Z,-21.51
2023-01-08T00:39:02.905Z,-21.43
2023-01-08T00:44:05.619Z,-21.21
2023-01-08T00:49:08.198Z,-21.25
2023-01-08T00:54:13.780Z,-21.40
2023-01-08T00:59:16.503Z,-21.21
2023-01-08T01:04:19.058Z,-21.05
2023-01-08T01:09:21.700Z,-20.88
2023-01-08T01:14:24.623Z,-20.92
2023-01-08T01:19:27.179Z,-20.76
2023-01-08T01:24:29.736Z,-20.48
2023-01-08T01:29:32.345Z,-20.41
2023-01-08T01:34:35.353Z,-20.50
2023-01-08T01:39:37.890Z,-20.59
2023-01-08T01:44:43.100Z,-20.38
2023-01-08T01:49:53.212Z,-20.44
2023-01-08T01:54:56.753Z,-20.32
2023-01-08T02:00:01.989Z,-20.49
2023-01-08T02:05:14.283Z,-20.37
2023-01-08T02:10:51.778Z,-20.48
2023-01-08T02:15:58.279Z,-20.60
2023-01-08T02:21:11.242Z,-20.69
2023-01-08T02:26:16.179Z,-20.79
2023-01-08T02:31:21.632Z,-21.20
2023-01-08T02:36:40.303Z,-21.41
2023-01-08T02:41:48.821Z,-21.50
2023-01-08T02:46:55.088Z,-21.48
2023-01-08T02:52:00.485Z,-21.22
2023-01-08T02:57:08.433Z,-21.50
2023-01-08T03:02:12.177Z,-21.15
2023-01-08T03:07:15.259Z,-21.37
2023-01-08T03:12:21.300Z,-21.27
2023-01-08T03:17:31.765Z,-21.17
2023-01-08T03:22:38.245Z,-21.07
2023-01-08T03:27:45.662Z,-21.11
2023-01-08T03:32:51.152Z,-21.10
2023-01-08T03:38:03.590Z,-21.08
2023-01-08T03:43:06.282Z,-20.98
2023-01-08T03:48:10.169Z,-21.01
2023-01-08T03:53:13.063Z,-20.74
2023-01-08T03:58:15.620Z,-20.57
2023-01-08T04:03:18.890Z,-20.45
2023-01-08T04:08:21.606Z,-20.23
2023-01-08T04:13:24.126Z,-20.04
2023-01-08T04:18:26.658Z,-19.96
2023-01-08T04:23:29.227Z,-19.99
2023-01-08T04:28:31.932Z,-19.65
2023-01-08T04:33:34.707Z,-19.83
2023-01-08T04:38:37.471Z,-19.87
2023-01-08T04:43:40.086Z,-20.21
2023-01-08T04:48:42.710Z,-20.06
2023-01-08T04:53:46.435Z,-19.88
2023-01-08T04:58:49.061Z,-19.77
2023-01-08T05:04:03.790Z,-19.63
2023-01-08T05:09:06.478Z,-19.69
2023-01-08T05:14:09.058Z,-19.51
2023-01-08T05:19:11.722Z,-19.67
2023-01-08T05:24:14.347Z,-19.69
2023-01-08T05:29:17.715Z,-19.74
2023-01-08T05:34:20.309Z,-19.70
2023-01-08T05:39:22.921Z,-19.73
2023-01-08T05:44:25.494Z,-19.49
2023-01-08T05:49:28.266Z,-19.64
2023-01-08T05:54:30.984Z,-19.78
2023-01-08T05:59:34.092Z,-19.92
2023-01-08T06:04:36.726Z,-19.74
2023-01-08T06:09:39.326Z,-19.94
2023-01-08T06:14:41.966Z,-19.85
2023-01-08T06:19:46.666Z,-20.03
2023-01-08T06:24:49.203Z,-20.17
2023-01-08T06:29:51.843Z,-20.14
2023-01-08T06:34:54.406Z,-20.09
2023-01-08T06:39:57.013Z,-20.16
2023-01-08T06:44:59.579Z,-19.86
2023-01-08T06:50:02.426Z,-19.91
2023-01-08T06:55:06.397Z,-20.01
2023-01-08T07:00:09.591Z,-19.37
2023-01-08T07:05:12.468Z,-19.00
2023-01-08T07:10:15.261Z,-18.96
2023-01-08T07:15:17.945Z,-18.80
2023-01-08T07:20:20.569Z,-18.77
2023-01-08T07:25:25.259Z,-18.91
2023-01-08T07:30:30.658Z,-18.72
2023-01-08T07:35:33.536Z,-18.50
2023-01-08T07:40:38.476Z,-18.48
2023-01-08T07:45:42.371Z,-18.46
2023-01-08T07:50:45.472Z,-18.56
2023-01-08T07:55:48.446Z,-18.56
2023-01-08T08:00:51.073Z,-18.25
2023-01-08T08:05:53.974Z,-18.25
2023-01-08T08:10:56.742Z,-18.07
2023-01-08T08:16:04.728Z,-17.85
2023-01-08T08:21:08.565Z,-16.93
2023-01-08T08:26:11.623Z,-16.90
2023-01-08T08:31:16.652Z,-17.00
2023-01-08T08:36:23.612Z,-17.07
2023-01-08T08:41:32.156Z,-17.20
2023-01-08T08:46:36.109Z,-17.00
2023-01-08T08:51:41.246Z,-16.79
2023-01-08T08:56:50.229Z,-16.62
2023-01-08T09:01:52.901Z,-16.11
2023-01-08T09:06:55.591Z,-16.03
2023-01-08T09:11:58.338Z,-15.86
2023-01-08T09:17:00.930Z,-15.65
2023-01-08T09:22:06.692Z,-15.79
2023-01-08T09:27:11.141Z,-15.28
2023-01-08T09:32:14.131Z,-15.67
2023-01-08T09:37:16.869Z,-15.87
2023-01-08T09:42:24.284Z,-16.21
2023-01-08T09:47:36.484Z,-16.33
2023-01-08T09:52:39.396Z,-16.39
2023-01-08T09:57:43.829Z,-16.52
2023-01-08T10:02:46.649Z,-16.31
2023-01-08T10:07:54.939Z,-15.92
2023-01-08T10:12:58.761Z,-15.59
2023-01-08T10:18:04.670Z,-15.44
2023-01-08T10:23:11.525Z,-15.49
2023-01-08T10:28:24.215Z,-15.82
2023-01-08T10:33:38.588Z,-15.68
2023-01-08T10:39:21.064Z,-15.40
2023-01-08T10:44:25.773Z,-15.27
2023-01-08T10:49:39.525Z,-15.42
2023-01-08T10:54:42.177Z,-15.17
2023-01-08T10:59:44.788Z,-15.15
2023-01-08T11:04:54.231Z,-14.71
2023-01-08T11:10:04.015Z,-14.92
2023-01-08T11:15:27.123Z,-14.98
2023-01-08T11:20:36.952Z,-15.19
2023-01-08T11:25:43.761Z,-15.08
2023-01-08T11:30:53.850Z,-15.01
2023-01-08T11:36:04.198Z,-15.26
2023-01-08T11:41:12.588Z,-14.66
2023-01-08T11:46:33.363Z,-14.69
2023-01-08T11:52:03.790Z,-14.75
2023-01-08T11:57:27.933Z,-14.59
2023-01-08T12:02:56.144Z,-14.71
2023-01-08T12:08:29.489Z,-14.66
2023-01-08T12:14:09.407Z,-14.72
2023-01-08T12:19:30.671Z,-14.73
2023-01-08T12:24:39.440Z,-14.81
2023-01-08T12:30:18.667Z,-14.85
2023-01-08T12:35:29.433Z,-15.17
2023-01-08T12:40:47.903Z,-14.86
2023-01-08T12:45:54.176Z,-14.93
2023-01-08T12:51:30.785Z,-14.98
2023-01-08T12:56:45.529Z,-14.91
2023-01-08T13:02:00.003Z,-14.96
2023-01-08T13:07:05.027Z,-15.15
2023-01-08T13:12:13.275Z,-15.25
2023-01-08T13:17:22.427Z,-15.08
2023-01-08T13:22:33.392Z,-15.28
2023-01-08T13:27:36.065Z,-15.40
2023-01-08T13:32:49.030Z,-15.63
2023-01-08T13:38:16.063Z,-15.54
2023-01-08T13:43:25.832Z,-15.73
2023-01-08T13:48:32.632Z,-15.74
2023-01-08T13:53:35.331Z,-15.75
2023-01-08T13:58:53.651Z,-15.73
2023-01-08T14:03:56.254Z,-15.84
2023-01-08T14:09:01.443Z,-16.04
2023-01-08T14:14:04.496Z,-15.66
2023-01-08T14:19:07.503Z,-15.77
2023-01-08T14:24:16.618Z,-15.59
2023-01-08T14:29:22.609Z,-15.27
2023-01-08T14:34:29.913Z,-15.51
2023-01-08T14:39:38.535Z,-15.72
2023-01-08T14:44:44.479Z,-15.80
2023-01-08T14:49:53.177Z,-15.52
2023-01-08T14:55:00.148Z,-15.49
2023-01-08T15:00:03.226Z,-15.29
2023-01-08T15:05:17.926Z,-15.31
2023-01-08T15:10:32.104Z,-15.15
2023-01-08T15:15:41.807Z,-15.16
2023-01-08T15:20:45.207Z,-15.09
2023-01-08T15:25:48.064Z,-15.05
2023-01-08T15:30:51.477Z,-15.03
2023-01-08T15:35:54.124Z,-15.07
2023-01-08T15:40:56.712Z,-15.00
2023-01-08T15:45:59.625Z,-15.07
2023-01-08T15:51:02.378Z,-15.11
2023-01-08T15:56:05.140Z,-15.28
2023-01-08T16:01:09.533Z,-15.12
2023-01-08T16:06:12.150Z,-14.99
2023-01-08T16:11:14.900Z,-14.98
2023-01-08T16:16:17.564Z,-14.93
2023-01-08T16:21:20.214Z,-15.07
2023-01-08T16:26:22.872Z,-15.07
2023-01-08T16:31:25.611Z,-14.96
2023-01-08T16:36:28.465Z,-14.98
2023-01-08T16:41:31.360Z,-14.90
2023-01-08T16:46:33.939Z,-14.92
2023-01-08T16:51:36.617Z,-14.96
2023-01-08T16:56:39.362Z,-14.91
2023-01-08T17:01:42.102Z,-14.80
2023-01-08T17:06:47.030Z,-14.73
2023-01-08T17:11:49.889Z,-14.87
2023-01-08T17:16:52.667Z,-15.11
2023-01-08T17:21:55.310Z,-15.17
2023-01-08T17:26:58.491Z,-15.18
2023-01-08T17:32:01.661Z,-15.44
2023-01-08T17:37:04.299Z,-15.58
2023-01-08T17:42:25.259Z,-15.64
2023-01-08T17:47:27.664Z,-15.93
2023-01-08T17:52:30.173Z,-16.11
2023-01-08T17:57:32.803Z,-16.26
2023-01-08T18:02:36.002Z,-16.73
2023-01-08T18:07:38.807Z,-16.98
2023-01-08T18:12:43.677Z,-17.08
2023-01-08T18:17:46.489Z,-17.45
2023-01-08T18:22:49.147Z,-17.28
2023-01-08T18:27:51.744Z,-17.58
2023-01-08T18:32:54.464Z,-17.66
2023-01-08T18:37:57.236Z,-17.73
2023-01-08T18:42:59.800Z,-17.61
2023-01-08T18:48:03.719Z,-17.91
2023-01-08T18:53:07.784Z,-17.87
2023-01-08T18:58:10.697Z,-17.98
2023-01-08T19:03:13.381Z,-17.90
2023-01-08T19:08:16.104Z,-17.89
2023-01-08T19:13:19.342Z,-18.17
2023-01-08T19:18:22.995Z,-18.23
2023-01-08T19:23:25.939Z,-18.18
2023-01-08T19:28:28.489Z,-18.05
2023-01-08T19:33:31.503Z,-18.28
2023-01-08T19:38:34.462Z,-18.48
2023-01-08T19:43:43.042Z,-18.52
2023-01-08T19:48:45.712Z,-18.43
2023-01-08T19:53:48.462Z,-18.36
2023-01-08T19:58:51.059Z,-18.28
2023-01-08T20:03:54.991Z,-18.50
2023-01-08T20:08:59.800Z,-18.72
2023-01-08T20:14:05.400Z,-18.59
2023-01-08T20:19:08.016Z,-18.41
2023-01-08T20:24:15.358Z,-18.11
2023-01-08T20:29:18.737Z,-18.00
2023-01-08T20:34:21.339Z,-17.69
2023-01-08T20:39:24.010Z,-17.46
2023-01-08T20:44:26.567Z,-17.35
2023-01-08T20:49:29.755Z,-17.16
2023-01-08T20:54:32.386Z,-16.94
2023-01-08T20:59:35.964Z,-16.78
2023-01-08T21:04:41.634Z,-16.68
2023-01-08T21:09:44.451Z,-16.82
2023-01-08T21:14:47.066Z,-16.45
2023-01-08T21:19:49.684Z,-16.32
2023-01-08T21:24:52.376Z,-16.08
2023-01-08T21:29:54.970Z,-16.07
2023-01-08T21:34:57.634Z,-15.94
2023-01-08T21:40:00.312Z,-15.82
2023-01-08T21:45:21.547Z,-15.94
2023-01-08T21:50:24.258Z,-15.56
2023-01-08T21:55:26.883Z,-15.58
2023-01-08T22:00:31.324Z,-15.59
2023-01-08T22:05:33.952Z,-15.66
2023-01-08T22:10:36.634Z,-15.43
2023-01-08T22:15:39.231Z,-15.27
2023-01-08T22:20:43.071Z,-15.15
2023-01-08T22:25:45.712Z,-15.21
2023-01-08T22:30:48.380Z,-15.08
2023-01-08T22:35:51.087Z,-15.05
2023-01-08T22:40:53.816Z,-15.05
2023-01-08T22:46:00.485Z,-14.95
2023-01-08T22:51:03.846Z,-14.79
2023-01-08T22:56:12.552Z,-14.68
2023-01-08T23:01:21.756Z,-14.67
2023-01-08T23:06:26.294Z,-14.76
2023-01-08T23:11:29.045Z,-14.84
2023-01-08T23:16:31.690Z,-14.90
2023-01-08T23:21:36.513Z,-15.08
2023-01-08T23:26:39.301Z,-15.18
2023-01-08T23:31:44.121Z,-15.25
2023-01-08T23:36:46.836Z,-15.35
2023-01-08T23:41:49.459Z,-15.43
2023-01-08T23:46:52.015Z,-15.55
2023-01-08T23:51:55.945Z,-15.74
2023-01-08T23:56:58.675Z,-15.80
